createdAt,value
2018-05-21T00:01:36.906Z,11.80
2018-05-21T00:04:04.849Z,11.70
2018-05-21T00:06:32.353Z,11.70
2018-05-21T00:08:59.901Z,11.70
2018-05-21T00:11:27.396Z,11.70
2018-05-21T00:13:54.908Z,11.60
2018-05-21T00:16:22.442Z,11.60
2018-05-21T00:18:49.945Z,11.50
2018-05-21T00:21:17.503Z,11.50
2018-05-21T00:23:45.017Z,11.50
2018-05-21T00:26:12.949Z,11.40
2018-05-21T00:28:40.442Z,11.50
2018-05-21T00:31:07.984Z,11.40
2018-05-21T00:33:35.492Z,11.40
2018-05-21T00:36:03.026Z,11.40
2018-05-21T00:38:30.692Z,11.30
2018-05-21T00:40:58.349Z,11.30
2018-05-21T00:43:25.852Z,11.30
2018-05-21T00:45:53.400Z,11.20
2018-05-21T00:48:20.896Z,11.20
2018-05-21T00:50:48.467Z,11.20
2018-05-21T00:53:15.973Z,11.10
2018-05-21T00:55:43.509Z,11.00
2018-05-21T00:58:11.157Z,10.90
2018-05-21T01:00:38.693Z,10.90
2018-05-21T01:03:06.323Z,10.90
2018-05-21T01:05:33.853Z,10.80
2018-05-21T01:08:01.349Z,10.90
2018-05-21T01:10:28.879Z,10.90
2018-05-21T01:12:56.697Z,10.80
2018-05-21T01:15:24.319Z,10.80
2018-05-21T01:17:51.823Z,10.80
2018-05-21T01:20:19.353Z,10.70
2018-05-21T01:22:46.905Z,10.60
2018-05-21T01:25:14.431Z,10.70
2018-05-21T01:27:42.035Z,10.70
2018-05-21T01:30:09.591Z,10.60
2018-05-21T01:32:37.085Z,10.60
2018-05-21T01:35:04.794Z,10.60
2018-05-21T01:37:32.301Z,10.60
2018-05-21T01:39:59.824Z,10.60
2018-05-21T01:42:27.317Z,10.60
2018-05-21T01:44:55.041Z,10.60
2018-05-21T01:47:22.673Z,10.50
2018-05-21T01:49:50.250Z,10.50
2018-05-21T01:52:17.785Z,10.50
2018-05-21T01:54:45.292Z,10.50
2018-05-21T01:57:12.910Z,10.40
2018-05-21T01:59:40.411Z,10.40
2018-05-21T02:02:07.969Z,10.40
2018-05-21T02:04:35.469Z,10.40
2018-05-21T02:07:02.997Z,10.40
2018-05-21T02:09:30.888Z,10.30
2018-05-21T02:11:58.453Z,10.30
2018-05-21T02:14:25.963Z,10.20
2018-05-21T02:16:53.503Z,10.20
2018-05-21T02:19:20.997Z,10.20
2018-05-21T02:21:48.521Z,10.20
2018-05-21T02:24:16.136Z,10.10
2018-05-21T02:26:43.797Z,10.10
2018-05-21T02:29:11.293Z,10.10
2018-05-21T02:31:38.826Z,10.00
2018-05-21T02:34:43.968Z,10.00
2018-05-21T02:37:11.493Z,10.00
2018-05-21T02:39:39.164Z,9.90
2018-05-21T02:42:08.560Z,9.90
2018-05-21T02:44:36.057Z,9.90
2018-05-21T02:47:03.585Z,9.90
2018-05-21T02:49:31.097Z,9.80
2018-05-21T02:51:58.620Z,9.80
2018-05-21T02:54:26.126Z,9.70
2018-05-21T02:56:53.654Z,9.50
2018-05-21T02:59:21.553Z,9.20
2018-05-21T03:01:49.100Z,9.20
2018-05-21T03:04:16.767Z,9.10
2018-05-21T03:06:44.294Z,9.00
2018-05-21T03:09:11.789Z,8.90
2018-05-21T03:11:39.339Z,8.90
2018-05-21T03:14:06.838Z,8.90
2018-05-21T03:16:34.370Z,9.00
2018-05-21T03:19:01.865Z,9.00
2018-05-21T03:21:29.402Z,9.10
2018-05-21T03:23:56.935Z,9.10
2018-05-21T03:26:24.473Z,9.10
2018-05-21T03:28:51.993Z,9.10
2018-05-21T03:31:19.898Z,9.20
2018-05-21T03:33:47.421Z,9.20
2018-05-21T03:36:14.913Z,9.20
2018-05-21T03:38:42.438Z,9.30
2018-05-21T03:41:09.996Z,9.30
2018-05-21T03:43:38.490Z,9.30
2018-05-21T03:46:06.138Z,9.30
2018-05-21T03:48:33.656Z,9.20
2018-05-21T03:51:01.153Z,9.20
2018-05-21T03:53:28.684Z,9.30
2018-05-21T03:55:56.368Z,9.30
2018-05-21T03:58:35.783Z,9.10
2018-05-21T04:01:14.993Z,8.90
2018-05-21T04:03:54.383Z,8.60
2018-05-21T04:06:21.886Z,8.60
2018-05-21T04:08:49.808Z,8.70
2018-05-21T04:11:17.337Z,8.80
2018-05-21T04:13:44.873Z,8.90
2018-05-21T04:16:12.775Z,9.10
2018-05-21T04:18:41.748Z,9.10
2018-05-21T04:21:09.177Z,9.20
2018-05-21T04:23:36.743Z,9.20
2018-05-21T04:26:04.243Z,9.10
2018-05-21T04:28:31.764Z,9.10
2018-05-21T04:30:59.434Z,9.20
2018-05-21T04:33:26.982Z,9.30
2018-05-21T04:35:54.487Z,9.30
2018-05-21T04:38:22.009Z,9.20
2018-05-21T04:40:49.623Z,9.20
2018-05-21T04:43:17.149Z,9.20
2018-05-21T04:45:44.677Z,9.30
2018-05-21T04:48:12.214Z,9.30
2018-05-21T04:50:39.884Z,9.30
2018-05-21T04:53:07.409Z,9.40
2018-05-21T04:55:35.305Z,9.60
2018-05-21T04:58:02.848Z,9.60
2018-05-21T05:00:30.341Z,9.60
2018-05-21T05:02:57.853Z,9.80
2018-05-21T05:05:25.362Z,9.80
2018-05-21T05:07:52.896Z,10.00
2018-05-21T05:10:20.413Z,10.20
2018-05-21T05:12:47.946Z,10.30
2018-05-21T05:15:15.462Z,10.50
2018-05-21T05:17:43.090Z,10.60
2018-05-21T05:20:10.584Z,10.80
2018-05-21T05:22:38.086Z,10.90
2018-05-21T05:25:06.024Z,11.20
2018-05-21T05:27:33.537Z,11.20
2018-05-21T05:30:01.070Z,11.40
2018-05-21T05:32:28.589Z,11.50
2018-05-21T05:34:56.880Z,11.70
2018-05-21T05:37:24.986Z,12.00
2018-05-21T05:39:52.514Z,12.10
2018-05-21T05:42:20.412Z,12.30
2018-05-21T05:44:47.945Z,12.30
2018-05-21T05:47:15.448Z,12.70
2018-05-21T05:49:44.215Z,12.70
2018-05-21T05:52:11.726Z,12.90
2018-05-21T05:54:39.254Z,13.20
2018-05-21T05:57:06.762Z,13.70
2018-05-21T05:59:34.304Z,13.70
2018-05-21T06:02:01.805Z,14.00
2018-05-21T06:04:29.329Z,14.40
2018-05-21T06:06:56.849Z,14.70
2018-05-21T06:09:24.397Z,15.10
2018-05-21T06:11:51.914Z,15.70
2018-05-21T06:14:19.614Z,16.70
2018-05-21T06:16:47.109Z,17.60
2018-05-21T06:19:14.654Z,18.60
2018-05-21T06:21:42.232Z,19.40
2018-05-21T06:24:09.766Z,20.30
2018-05-21T06:26:37.261Z,21.30
2018-05-21T06:29:04.785Z,21.70
2018-05-21T06:31:32.290Z,22.20
2018-05-21T06:33:59.919Z,22.60
2018-05-21T06:36:27.329Z,22.90
2018-05-21T06:38:54.859Z,24.00
2018-05-21T06:41:22.389Z,24.40
2018-05-21T06:43:49.929Z,24.20
2018-05-21T06:46:17.436Z,24.10
2018-05-21T06:48:45.042Z,24.70
2018-05-21T06:51:12.602Z,24.30
2018-05-21T06:53:40.115Z,24.50
2018-05-21T06:56:07.652Z,24.30
2018-05-21T06:58:35.153Z,24.20
2018-05-21T07:01:03.692Z,25.30
2018-05-21T07:03:31.397Z,26.70
2018-05-21T07:05:58.926Z,27.30
2018-05-21T07:08:26.841Z,27.50
2018-05-21T07:10:54.379Z,27.50
2018-05-21T07:13:22.038Z,28.30
2018-05-21T07:15:49.566Z,28.50
2018-05-21T07:18:17.535Z,29.10
2018-05-21T07:20:45.018Z,29.10
2018-05-21T07:23:12.516Z,28.80
2018-05-21T07:25:40.962Z,29.10
2018-05-21T07:28:08.616Z,29.40
2018-05-21T07:30:36.145Z,29.50
2018-05-21T07:33:03.648Z,30.10
2018-05-21T07:35:31.369Z,30.70
2018-05-21T07:37:58.877Z,31.20
2018-05-21T07:40:26.415Z,32.50
2018-05-21T07:42:53.921Z,33.30
2018-05-21T07:45:21.531Z,33.90
2018-05-21T07:47:49.369Z,34.30
2018-05-21T07:50:16.911Z,34.30
2018-05-21T07:52:44.423Z,33.00
2018-05-21T07:55:12.041Z,32.30
2018-05-21T07:57:39.558Z,32.20
2018-05-21T08:00:07.486Z,33.50
2018-05-21T08:02:34.982Z,33.50
2018-05-21T08:05:02.517Z,34.80
2018-05-21T08:07:30.037Z,35.50
2018-05-21T08:09:57.582Z,35.50
2018-05-21T08:12:27.321Z,36.60
2018-05-21T08:14:54.974Z,36.70
2018-05-21T08:17:23.074Z,35.50
2018-05-21T08:19:51.009Z,35.80
2018-05-21T08:22:18.604Z,35.80
2018-05-21T08:24:46.057Z,34.70
2018-05-21T08:27:13.985Z,34.90
2018-05-21T08:29:41.498Z,34.90
2018-05-21T08:32:09.032Z,34.70
2018-05-21T08:34:36.935Z,34.50
2018-05-21T08:37:04.474Z,34.50
2018-05-21T08:39:31.991Z,33.70
2018-05-21T08:41:59.528Z,34.00
2018-05-21T08:44:27.038Z,34.60
2018-05-21T08:46:54.596Z,34.60
2018-05-21T08:49:22.101Z,35.40
2018-05-21T08:51:49.630Z,35.00
2018-05-21T08:54:17.153Z,35.00
2018-05-21T08:56:44.682Z,34.60
2018-05-21T08:59:12.199Z,34.20
2018-05-21T09:01:39.733Z,35.00
2018-05-21T09:04:07.249Z,35.40
2018-05-21T09:06:34.945Z,34.90
2018-05-21T09:09:02.455Z,36.00
2018-05-21T09:11:30.000Z,35.40
2018-05-21T09:13:57.499Z,36.40
2018-05-21T09:16:25.153Z,37.10
2018-05-21T09:18:52.638Z,36.30
2018-05-21T09:21:20.167Z,36.10
2018-05-21T09:23:48.067Z,35.80
2018-05-21T09:26:15.603Z,35.70
2018-05-21T09:28:43.114Z,35.00
2018-05-21T09:31:10.730Z,34.90
2018-05-21T09:33:38.237Z,34.00
2018-05-21T09:36:05.841Z,34.20
2018-05-21T09:38:33.341Z,35.00
2018-05-21T09:41:00.862Z,34.80
2018-05-21T09:43:28.398Z,35.70
2018-05-21T09:45:55.935Z,35.70
2018-05-21T09:48:23.440Z,36.20
2018-05-21T09:50:50.989Z,35.20
2018-05-21T09:53:18.622Z,35.30
2018-05-21T09:55:46.281Z,35.30
2018-05-21T09:58:13.809Z,35.20
2018-05-21T10:00:41.706Z,35.80
2018-05-21T10:03:09.250Z,35.80
2018-05-21T10:05:36.772Z,36.00
2018-05-21T10:08:04.318Z,36.60
2018-05-21T10:10:31.824Z,36.90
2018-05-21T10:13:00.300Z,36.30
2018-05-21T10:15:27.814Z,36.20
2018-05-21T10:17:55.420Z,35.70
2018-05-21T10:20:22.933Z,34.90
2018-05-21T10:22:50.469Z,34.50
2018-05-21T10:25:17.964Z,34.90
2018-05-21T10:27:45.650Z,33.50
2018-05-21T10:30:13.149Z,32.60
2018-05-21T10:32:40.673Z,32.00
2018-05-21T10:35:08.175Z,32.60
2018-05-21T10:37:35.877Z,33.80
2018-05-21T10:40:03.520Z,34.30
2018-05-21T10:42:31.049Z,34.70
2018-05-21T10:44:59.027Z,34.60
2018-05-21T10:47:26.511Z,34.60
2018-05-21T10:49:54.005Z,34.80
2018-05-21T10:52:21.533Z,34.40
2018-05-21T10:54:49.084Z,33.00
2018-05-21T10:57:16.620Z,31.00
2018-05-21T10:59:44.857Z,28.80
2018-05-21T11:02:12.464Z,27.90
2018-05-21T11:04:40.043Z,27.40
2018-05-21T11:07:07.917Z,25.70
2018-05-21T11:09:35.417Z,25.70
2018-05-21T11:12:03.565Z,24.80
2018-05-21T11:14:31.483Z,24.30
2018-05-21T11:16:59.012Z,24.30
2018-05-21T11:19:26.573Z,24.50
2018-05-21T11:21:54.472Z,24.30
2018-05-21T11:24:21.971Z,24.30
2018-05-21T11:26:49.664Z,24.30
2018-05-21T11:29:17.172Z,24.30
2018-05-21T11:31:44.702Z,24.40
2018-05-21T11:34:12.206Z,24.40
2018-05-21T11:36:39.717Z,24.30
2018-05-21T11:39:07.346Z,24.00
2018-05-21T11:41:34.859Z,24.00
2018-05-21T11:44:02.788Z,24.00
2018-05-21T11:46:30.295Z,24.00
2018-05-21T11:48:57.830Z,23.90
2018-05-21T11:51:25.331Z,23.90
2018-05-21T11:53:52.865Z,23.80
2018-05-21T11:56:20.375Z,23.80
2018-05-21T11:58:47.949Z,23.60
2018-05-21T12:01:15.437Z,23.70
2018-05-21T12:03:42.961Z,23.70
2018-05-21T12:06:10.856Z,23.80
2018-05-21T12:08:38.390Z,23.80
2018-05-21T12:11:05.907Z,23.70
2018-05-21T12:13:33.437Z,23.60
2018-05-21T12:16:00.995Z,23.60
2018-05-21T12:18:28.529Z,23.80
2018-05-21T12:20:56.045Z,23.90
2018-05-21T12:23:23.573Z,24.00
2018-05-21T12:25:51.101Z,24.20
2018-05-21T12:28:18.651Z,24.30
2018-05-21T12:30:46.150Z,24.20
2018-05-21T12:33:13.685Z,23.90
2018-05-21T12:35:41.238Z,24.10
2018-05-21T12:38:08.768Z,24.30
2018-05-21T12:40:37.044Z,24.40
2018-05-21T12:43:04.970Z,24.60
2018-05-21T12:45:32.493Z,24.80
2018-05-21T12:48:00.029Z,24.80
2018-05-21T12:50:27.605Z,24.60
2018-05-21T12:52:55.136Z,24.30
2018-05-21T12:55:22.650Z,24.10
2018-05-21T12:57:50.197Z,23.70
2018-05-21T13:00:17.701Z,23.80
2018-05-21T13:02:45.217Z,23.80
2018-05-21T13:05:12.754Z,23.50
2018-05-21T13:07:40.261Z,23.60
2018-05-21T13:10:07.953Z,23.90
2018-05-21T13:12:35.454Z,23.90
2018-05-21T13:15:02.991Z,24.00
2018-05-21T13:17:30.500Z,24.00
2018-05-21T13:19:58.038Z,24.10
2018-05-21T13:22:25.536Z,24.20
2018-05-21T13:24:53.080Z,24.10
2018-05-21T13:27:20.581Z,24.10
2018-05-21T13:29:48.296Z,24.30
2018-05-21T13:32:15.798Z,24.50
2018-05-21T13:34:44.322Z,24.40
2018-05-21T13:37:11.761Z,24.40
2018-05-21T13:39:39.746Z,24.10
2018-05-21T13:42:07.265Z,24.10
2018-05-21T13:44:34.816Z,24.10
2018-05-21T13:47:02.337Z,23.90
2018-05-21T13:49:29.954Z,23.90
2018-05-21T13:51:57.465Z,24.00
2018-05-21T13:54:25.002Z,23.90
2018-05-21T13:56:56.231Z,24.00
2018-05-21T13:59:23.760Z,23.80
2018-05-21T14:01:52.320Z,23.40
2018-05-21T14:04:19.852Z,23.30
2018-05-21T14:06:47.361Z,23.30
2018-05-21T14:09:14.899Z,23.20
2018-05-21T14:11:42.397Z,22.90
2018-05-21T14:14:09.919Z,22.70
2018-05-21T14:16:37.447Z,22.50
2018-05-21T14:19:05.001Z,22.40
2018-05-21T14:21:32.619Z,22.30
2018-05-21T14:24:00.075Z,22.30
2018-05-21T14:26:27.626Z,22.30
2018-05-21T14:28:55.133Z,22.20
2018-05-21T14:31:22.659Z,22.10
2018-05-21T14:33:50.167Z,22.20
2018-05-21T14:36:17.699Z,22.00
2018-05-21T14:38:45.602Z,21.40
2018-05-21T14:41:13.147Z,21.30
2018-05-21T14:43:41.525Z,21.00
2018-05-21T14:46:10.043Z,20.70
2018-05-21T14:48:37.541Z,19.50
2018-05-21T14:51:05.461Z,19.00
2018-05-21T14:53:33.002Z,18.90
2018-05-21T14:56:00.656Z,18.80
2018-05-21T14:58:28.319Z,18.80
2018-05-21T15:00:55.874Z,18.80
2018-05-21T15:03:23.372Z,18.70
2018-05-21T15:05:50.893Z,18.80
2018-05-21T15:08:18.392Z,18.80
2018-05-21T15:10:45.914Z,18.80
2018-05-21T15:13:13.427Z,18.80
2018-05-21T15:15:40.953Z,18.80
2018-05-21T15:18:09.312Z,18.50
2018-05-21T15:20:36.861Z,18.40
2018-05-21T15:23:04.360Z,18.30
2018-05-21T15:25:31.886Z,18.20
2018-05-21T15:27:59.402Z,18.20
2018-05-21T15:30:26.963Z,18.30
2018-05-21T15:32:54.524Z,18.20
2018-05-21T15:35:22.379Z,18.30
2018-05-21T15:37:49.889Z,18.30
2018-05-21T15:40:17.786Z,17.30
2018-05-21T15:42:45.328Z,17.10
2018-05-21T15:45:12.823Z,17.00
2018-05-21T15:47:40.361Z,17.10
2018-05-21T15:50:07.939Z,17.10
2018-05-21T15:52:35.476Z,17.20
2018-05-21T15:55:02.982Z,17.30
2018-05-21T15:57:30.559Z,17.40
2018-05-21T15:59:58.041Z,17.50
2018-05-21T16:02:25.805Z,17.60
2018-05-21T16:04:53.350Z,17.60
2018-05-21T16:07:20.877Z,17.60
2018-05-21T16:09:48.378Z,17.60
2018-05-21T16:12:15.912Z,17.60
2018-05-21T16:14:43.479Z,17.50
2018-05-21T16:17:11.025Z,17.50
2018-05-21T16:19:38.585Z,17.50
2018-05-21T16:22:06.140Z,17.50
2018-05-21T16:24:33.654Z,17.50
2018-05-21T16:27:01.181Z,17.60
2018-05-21T16:29:28.677Z,17.60
2018-05-21T16:31:56.622Z,17.60
2018-05-21T16:34:24.149Z,17.60
2018-05-21T16:36:51.705Z,17.60
2018-05-21T16:39:19.202Z,17.60
2018-05-21T16:41:46.757Z,17.70
2018-05-21T16:44:15.388Z,17.70
2018-05-21T16:46:42.930Z,17.80
2018-05-21T16:49:10.442Z,17.90
2018-05-21T16:51:37.979Z,17.90
2018-05-21T16:54:05.486Z,17.90
2018-05-21T16:56:33.412Z,17.70
2018-05-21T16:59:00.918Z,17.70
2018-05-21T17:01:28.468Z,17.80
2018-05-21T17:03:55.992Z,17.80
2018-05-21T17:06:23.548Z,17.80
2018-05-21T17:08:51.160Z,17.70
2018-05-21T17:11:18.677Z,17.50
2018-05-21T17:13:46.597Z,17.30
2018-05-21T17:16:14.100Z,17.20
2018-05-21T17:18:41.634Z,17.10
2018-05-21T17:21:09.248Z,17.00
2018-05-21T17:23:36.782Z,17.00
2018-05-21T17:26:04.345Z,17.10
2018-05-21T17:28:33.117Z,17.20
2018-05-21T17:31:01.755Z,17.40
2018-05-21T17:33:29.281Z,17.40
2018-05-21T17:35:56.838Z,17.40
2018-05-21T17:38:24.494Z,17.30
2018-05-21T17:40:51.990Z,17.20
2018-05-21T17:43:19.608Z,17.20
2018-05-21T17:45:47.352Z,17.20
2018-05-21T17:48:14.913Z,17.10
2018-05-21T17:50:42.429Z,17.10
2018-05-21T17:53:09.966Z,17.10
2018-05-21T17:55:37.470Z,17.00
2018-05-21T17:58:05.004Z,16.90
2018-05-21T18:00:32.911Z,16.70
2018-05-21T18:03:00.437Z,16.70
2018-05-21T18:05:27.947Z,16.80
2018-05-21T18:07:55.477Z,16.80
2018-05-21T18:10:22.985Z,16.80
2018-05-21T18:12:50.696Z,16.80
2018-05-21T18:15:18.197Z,16.80
2018-05-21T18:17:45.724Z,16.80
2018-05-21T18:20:13.225Z,16.70
2018-05-21T18:22:40.921Z,16.60
2018-05-21T18:25:08.431Z,16.50
2018-05-21T18:27:36.381Z,16.40
2018-05-21T18:30:03.901Z,16.40
2018-05-21T18:32:31.429Z,16.40
2018-05-21T18:34:58.937Z,16.30
2018-05-21T18:37:26.516Z,16.30
2018-05-21T18:39:54.454Z,16.10
2018-05-21T18:42:22.043Z,16.10
2018-05-21T18:44:49.523Z,16.10
2018-05-21T18:47:19.987Z,16.00
2018-05-21T18:49:47.530Z,16.00
2018-05-21T18:52:15.073Z,15.90
2018-05-21T18:54:42.597Z,15.90
2018-05-21T18:57:10.598Z,15.80
2018-05-21T18:59:38.139Z,15.80
2018-05-21T19:02:05.649Z,15.70
2018-05-21T19:04:33.605Z,15.60
2018-05-21T19:07:01.117Z,15.50
2018-05-21T19:09:28.684Z,15.50
2018-05-21T19:11:56.188Z,15.50
2018-05-21T19:14:23.735Z,15.40
2018-05-21T19:16:51.257Z,15.40
2018-05-21T19:19:18.785Z,15.30
2018-05-21T19:21:46.681Z,15.30
2018-05-21T19:24:14.212Z,15.30
2018-05-21T19:26:41.718Z,15.20
2018-05-21T19:29:09.244Z,15.20
2018-05-21T19:31:36.742Z,15.20
2018-05-21T19:34:04.273Z,15.20
2018-05-21T19:36:31.884Z,15.20
2018-05-21T19:38:59.416Z,15.10
2018-05-21T19:41:27.033Z,15.00
2018-05-21T19:43:54.575Z,15.00
2018-05-21T19:46:22.121Z,14.90
2018-05-21T19:48:51.372Z,14.90
2018-05-21T19:51:18.880Z,14.90
2018-05-21T19:53:46.541Z,14.90
2018-05-21T19:56:14.041Z,15.00
2018-05-21T19:58:41.564Z,14.90
2018-05-21T20:01:09.154Z,14.90
2018-05-21T20:03:36.685Z,14.70
2018-05-21T20:06:04.194Z,14.70
2018-05-21T20:08:31.703Z,14.60
2018-05-21T20:10:59.877Z,14.60
2018-05-21T20:13:27.385Z,14.60
2018-05-21T20:15:54.927Z,14.60
2018-05-21T20:18:33.973Z,14.50
2018-05-21T20:21:01.524Z,14.50
2018-05-21T20:23:29.028Z,14.50
2018-05-21T20:25:56.561Z,14.40
2018-05-21T20:28:24.078Z,14.40
2018-05-21T20:30:52.015Z,14.30
2018-05-21T20:33:19.967Z,14.30
2018-05-21T20:35:47.514Z,14.30
2018-05-21T20:38:15.054Z,14.30
2018-05-21T20:40:42.608Z,14.30
2018-05-21T20:43:10.121Z,14.30
2018-05-21T20:45:37.649Z,14.30
2018-05-21T20:48:05.288Z,14.20
2018-05-21T20:50:32.833Z,14.20
2018-05-21T20:53:00.328Z,14.20
2018-05-21T20:55:27.862Z,14.20
2018-05-21T20:57:55.492Z,14.10
2018-05-21T21:00:23.039Z,14.10
2018-05-21T21:02:50.551Z,14.00
2018-05-21T21:05:18.363Z,14.00
2018-05-21T21:07:45.869Z,13.90
2018-05-21T21:10:13.402Z,13.90
2018-05-21T21:12:40.909Z,13.80
2018-05-21T21:15:08.853Z,13.80
2018-05-21T21:17:36.358Z,13.90
2018-05-21T21:20:03.898Z,13.90
2018-05-21T21:22:32.217Z,13.90
2018-05-21T21:24:59.737Z,13.80
2018-05-21T21:27:27.237Z,13.80
2018-05-21T21:29:56.220Z,13.70
2018-05-21T21:32:23.810Z,13.60
2018-05-21T21:34:51.286Z,13.40
2018-05-21T21:37:18.799Z,13.30
2018-05-21T21:39:46.324Z,13.20
2018-05-21T21:42:13.833Z,13.20
2018-05-21T21:44:41.760Z,13.20
2018-05-21T21:47:09.280Z,13.20
2018-05-21T21:49:36.784Z,13.20
2018-05-21T21:52:04.406Z,13.20
2018-05-21T21:54:31.908Z,13.20
2018-05-21T21:56:59.449Z,13.20
2018-05-21T21:59:26.949Z,13.10
2018-05-21T22:01:54.493Z,13.10
2018-05-21T22:04:22.482Z,13.10
2018-05-21T22:06:50.003Z,13.10
2018-05-21T22:09:17.726Z,13.00
2018-05-21T22:11:45.264Z,13.00
2018-05-21T22:14:12.919Z,13.00
2018-05-21T22:16:40.445Z,13.00
2018-05-21T22:19:08.346Z,12.90
2018-05-21T22:21:35.865Z,12.90
2018-05-21T22:24:03.362Z,12.90
2018-05-21T22:26:31.040Z,12.90
2018-05-21T22:28:58.545Z,12.90
2018-05-21T22:31:26.081Z,12.80
2018-05-21T22:33:53.581Z,12.70
2018-05-21T22:36:21.135Z,12.70
2018-05-21T22:38:48.687Z,12.60
2018-05-21T22:41:16.225Z,12.60
2018-05-21T22:43:45.206Z,12.60
2018-05-21T22:46:12.740Z,12.60
2018-05-21T22:48:40.335Z,12.50
2018-05-21T22:51:07.909Z,12.50
2018-05-21T22:53:35.463Z,12.50
2018-05-21T22:56:03.001Z,12.50
2018-05-21T22:58:30.505Z,12.50
2018-05-21T23:00:58.238Z,12.50
2018-05-21T23:03:26.745Z,12.50
2018-05-21T23:05:54.367Z,12.40
2018-05-21T23:08:21.876Z,12.30
2018-05-21T23:10:49.425Z,12.30
2018-05-21T23:13:16.925Z,12.30
2018-05-21T23:15:44.473Z,12.30
2018-05-21T23:18:12.046Z,12.20
2018-05-21T23:20:39.557Z,12.20
2018-05-21T23:23:07.131Z,12.20
2018-05-21T23:25:34.670Z,12.20
2018-05-21T23:28:02.210Z,12.20
2018-05-21T23:30:29.705Z,12.20
2018-05-21T23:32:57.237Z,12.10
2018-05-21T23:35:24.743Z,12.10
2018-05-21T23:37:52.285Z,12.00
2018-05-21T23:40:19.907Z,11.90
2018-05-21T23:42:47.609Z,11.90
2018-05-21T23:45:15.257Z,11.80
2018-05-21T23:47:42.784Z,11.80
2018-05-21T23:50:10.694Z,11.80
2018-05-21T23:52:38.221Z,11.80
2018-05-21T23:55:05.737Z,11.80
2018-05-21T23:57:33.267Z,11.80
